createdAt,value
2022-11-12T07:28:00.226Z,-0.12
2022-11-12T07:31:43.864Z,-0.12
2022-11-12T07:35:06.575Z,-0.20
2022-11-12T07:38:30.850Z,-0.23
2022-11-12T07:41:55.314Z,-0.26
2022-11-12T07:45:18.350Z,-0.37
2022-11-12T07:48:40.583Z,-0.37
2022-11-12T07:52:03.080Z,-0.48
2022-11-12T07:55:25.113Z,-0.55
2022-11-12T07:58:47.565Z,-0.62
2022-11-12T08:02:10.433Z,-0.72
2022-11-12T08:05:35.453Z,-0.78
2022-11-12T08:08:57.653Z,-0.83
2022-11-12T08:12:20.133Z,-0.93
2022-11-12T08:15:42.141Z,-1.02
2022-11-12T08:19:04.851Z,-1.07
2022-11-12T08:22:29.163Z,-1.07
2022-11-12T08:25:51.260Z,-1.13
2022-11-12T08:29:13.367Z,-1.16
2022-11-12T08:32:38.764Z,-1.15
2022-11-12T08:36:04.651Z,-1.12
2022-11-12T08:39:26.861Z,-1.23
2022-11-12T08:42:48.745Z,-1.44
2022-11-12T08:46:11.239Z,-1.38
2022-11-12T08:49:32.821Z,-1.34
2022-11-12T08:52:54.434Z,-1.33
2022-11-12T08:56:16.419Z,-1.36
2022-11-12T08:59:38.779Z,-1.41
2022-11-12T09:03:01.913Z,-1.45
2022-11-12T09:06:24.636Z,-1.48
2022-11-12T09:09:47.307Z,-1.53
2022-11-12T09:13:10.011Z,-1.51
2022-11-12T09:16:32.278Z,-1.53
2022-11-12T09:19:54.739Z,-1.48
2022-11-12T09:23:18.222Z,-1.48
2022-11-12T09:26:40.907Z,-1.48
2022-11-12T09:30:02.125Z,-1.45
2022-11-12T09:33:30.017Z,-1.47
2022-11-12T09:36:52.391Z,-1.51
2022-11-12T09:40:19.593Z,-1.52
2022-11-12T09:43:48.861Z,-1.55
2022-11-12T09:47:18.705Z,-1.57
2022-11-12T09:50:49.175Z,-1.61
2022-11-12T09:54:25.186Z,-1.61
2022-11-12T09:57:47.249Z,-1.66
2022-11-12T10:01:18.813Z,-1.64
2022-11-12T10:04:44.231Z,-1.70
2022-11-12T10:08:28.369Z,-1.63
2022-11-12T10:12:34.310Z,-1.57
2022-11-12T10:16:31.952Z,-1.60
2022-11-12T10:20:02.081Z,-1.61
2022-11-12T10:23:39.800Z,-1.57
2022-11-12T10:27:03.267Z,-1.54
2022-11-12T10:30:26.629Z,-1.50
2022-11-12T10:33:48.902Z,-1.48
2022-11-12T10:37:20.421Z,-1.50
2022-11-12T10:40:43.565Z,-1.49
2022-11-12T10:44:08.102Z,-1.50
2022-11-12T10:47:43.316Z,-1.50
2022-11-12T10:51:22.981Z,-1.49
2022-11-12T10:54:45.273Z,-1.48
2022-11-12T10:58:11.976Z,-1.47
2022-11-12T11:01:35.921Z,-1.51
2022-11-12T11:04:58.366Z,-1.67
2022-11-12T11:08:45.881Z,-1.79
2022-11-12T11:12:25.022Z,-1.80
2022-11-12T11:15:58.488Z,-1.82
2022-11-12T11:19:21.814Z,-1.86
2022-11-12T11:22:50.920Z,-2.00
2022-11-12T11:26:36.722Z,-2.00
2022-11-12T11:30:04.065Z,-2.05
2022-11-12T11:33:46.805Z,-2.10
2022-11-12T11:37:27.412Z,-2.06
2022-11-12T11:40:54.722Z,-2.04
2022-11-12T11:44:38.563Z,-1.96
2022-11-12T11:48:19.429Z,-2.03
2022-11-12T11:51:41.638Z,-2.18
2022-11-12T11:55:09.960Z,-2.31
2022-11-12T11:59:14.845Z,-2.32
2022-11-12T12:02:52.431Z,-2.38
2022-11-12T12:06:13.684Z,-2.46
2022-11-12T12:09:56.829Z,-2.41
2022-11-12T12:13:51.733Z,-2.31
2022-11-12T12:17:35.063Z,-2.25
2022-11-12T12:21:05.214Z,-2.26
2022-11-12T12:24:39.013Z,-2.33
2022-11-12T12:28:37.895Z,-2.44
2022-11-12T12:32:13.414Z,-2.45
2022-11-12T12:35:41.590Z,-2.44
2022-11-12T12:39:26.117Z,-2.41
2022-11-12T12:42:56.880Z,-2.41
2022-11-12T12:46:25.180Z,-2.42
2022-11-12T12:49:49.685Z,-2.32
2022-11-12T12:53:28.897Z,-2.20
2022-11-12T12:56:51.183Z,-2.14
2022-11-12T13:00:40.195Z,-2.02
2022-11-12T13:04:09.851Z,-2.00
2022-11-12T13:07:44.857Z,-1.92
2022-11-12T13:11:07.040Z,-1.93
2022-11-12T13:14:38.630Z,-1.82
2022-11-12T13:18:00.945Z,-1.79
2022-11-12T13:21:22.705Z,-1.82
2022-11-12T13:25:25.316Z,-1.82
2022-11-12T13:29:24.597Z,-1.88
2022-11-12T13:32:50.322Z,-1.90
2022-11-12T13:36:30.328Z,-1.89
2022-11-12T13:39:51.709Z,-1.90
2022-11-12T13:43:16.755Z,-1.89
2022-11-12T13:46:38.768Z,-1.92
2022-11-12T13:50:02.433Z,-2.01
2022-11-12T13:53:27.425Z,-2.11
2022-11-12T13:56:49.981Z,-2.28
2022-11-12T14:00:12.320Z,-2.44
2022-11-12T14:03:50.985Z,-2.55
2022-11-12T14:07:43.637Z,-2.57
2022-11-12T14:11:12.811Z,-2.83
2022-11-12T14:14:59.502Z,-2.90
2022-11-12T14:18:46.063Z,-2.97
2022-11-12T14:22:10.369Z,-3.23
2022-11-12T14:25:32.355Z,-3.45
2022-11-12T14:28:58.436Z,-3.50
2022-11-12T14:32:20.841Z,-3.56
2022-11-12T14:35:43.304Z,-3.61
2022-11-12T14:39:04.827Z,-3.57
2022-11-12T14:42:36.340Z,-3.60
2022-11-12T14:46:02.292Z,-3.55
2022-11-12T14:49:39.382Z,-3.66
2022-11-12T14:53:09.472Z,-3.57
2022-11-12T14:56:43.191Z,-3.74
2022-11-12T15:00:37.956Z,-3.77
2022-11-12T15:04:18.601Z,-3.82
2022-11-12T15:07:59.239Z,-3.88
2022-11-12T15:11:32.863Z,-3.93
2022-11-12T15:15:04.805Z,-3.93
2022-11-12T15:18:30.525Z,-4.16
2022-11-12T15:21:53.571Z,-4.30
2022-11-12T15:25:31.840Z,-4.37
2022-11-12T15:29:02.103Z,-4.44
2022-11-12T15:32:23.348Z,-4.53
2022-11-12T15:35:45.734Z,-4.46
2022-11-12T15:39:14.574Z,-4.43
2022-11-12T15:42:43.177Z,-4.38
2022-11-12T15:46:05.293Z,-4.37
2022-11-12T15:49:27.545Z,-4.35
2022-11-12T15:52:49.478Z,-4.31
2022-11-12T15:56:22.389Z,-4.21
2022-11-12T15:59:44.550Z,-4.16
2022-11-12T16:03:13.806Z,-4.07
2022-11-12T16:06:35.298Z,-4.09
2022-11-12T16:09:57.726Z,-4.10
2022-11-12T16:13:36.543Z,-4.10
2022-11-12T16:16:59.200Z,-4.04
2022-11-12T16:20:26.155Z,-4.08
2022-11-12T16:23:47.971Z,-4.22
2022-11-12T16:27:16.610Z,-4.20
2022-11-12T16:30:39.099Z,-4.23
2022-11-12T16:34:01.411Z,-4.21
2022-11-12T16:37:24.099Z,-4.34
2022-11-12T16:40:46.706Z,-4.44
2022-11-12T16:44:08.962Z,-4.35
2022-11-12T16:47:32.475Z,-4.27
2022-11-12T16:50:53.550Z,-4.25
2022-11-12T16:54:14.698Z,-4.19
2022-11-12T16:57:36.263Z,-4.16
2022-11-12T17:00:57.690Z,-4.24
2022-11-12T17:04:20.059Z,-4.25
2022-11-12T17:07:42.116Z,-4.33
2022-11-12T17:11:08.064Z,-4.36
2022-11-12T17:14:30.262Z,-4.53
2022-11-12T17:17:54.836Z,-4.67
2022-11-12T17:21:19.376Z,-4.55
2022-11-12T17:24:41.231Z,-4.50
2022-11-12T17:28:03.189Z,-4.44
2022-11-12T17:31:24.976Z,-4.34
2022-11-12T17:34:46.290Z,-4.22
2022-11-12T17:38:08.016Z,-4.13
2022-11-12T17:41:30.264Z,-4.18
2022-11-12T17:44:52.340Z,-4.27
2022-11-12T17:48:14.029Z,-4.15
2022-11-12T17:51:36.243Z,-4.15
2022-11-12T17:54:58.103Z,-4.08
2022-11-12T17:58:19.672Z,-4.09
2022-11-12T18:01:41.962Z,-4.10
2022-11-12T18:05:03.621Z,-4.07
2022-11-12T18:08:26.135Z,-4.16
2022-11-12T18:11:57.148Z,-4.25
2022-11-12T18:15:19.565Z,-4.35
2022-11-12T18:18:44.543Z,-4.29
2022-11-12T18:22:06.088Z,-4.30
2022-11-12T18:25:27.655Z,-4.53
2022-11-12T18:28:57.689Z,-4.69
2022-11-12T18:32:19.745Z,-5.04
2022-11-12T18:35:41.577Z,-5.13
2022-11-12T18:39:05.432Z,-5.00
2022-11-12T18:42:27.112Z,-4.87
2022-11-12T18:45:55.840Z,-4.68
2022-11-12T18:49:17.436Z,-4.51
2022-11-12T18:52:39.156Z,-4.46
2022-11-12T18:56:05.050Z,-4.38
2022-11-12T18:59:31.425Z,-4.31
2022-11-12T19:02:54.044Z,-4.41
2022-11-12T19:06:17.557Z,-4.45
2022-11-12T19:09:39.895Z,-4.36
2022-11-12T19:13:04.956Z,-4.45
2022-11-12T19:16:27.238Z,-4.43
2022-11-12T19:19:49.873Z,-4.36
2022-11-12T19:23:12.117Z,-4.39
2022-11-12T19:26:35.377Z,-4.41
2022-11-12T19:30:02.647Z,-4.66
2022-11-12T19:33:26.013Z,-4.84
2022-11-12T19:36:48.495Z,-4.92
2022-11-12T19:40:15.563Z,-4.90
2022-11-12T19:43:38.424Z,-4.88
2022-11-12T19:47:00.886Z,-4.91
2022-11-12T19:50:24.851Z,-4.84
2022-11-12T19:53:46.984Z,-4.84
2022-11-12T19:57:09.379Z,-4.89
2022-11-12T20:00:31.690Z,-4.75
2022-11-12T20:03:54.547Z,-4.68
2022-11-12T20:07:17.265Z,-4.62
2022-11-12T20:10:38.649Z,-4.42
2022-11-12T20:14:01.388Z,-4.35
2022-11-12T20:17:22.949Z,-4.42
2022-11-12T20:20:56.535Z,-4.40
2022-11-12T20:24:19.659Z,-4.44
2022-11-12T20:27:42.260Z,-4.40
2022-11-12T20:31:08.791Z,-4.38
2022-11-12T20:34:31.154Z,-4.34
2022-11-12T20:37:54.018Z,-4.41
2022-11-12T20:41:22.246Z,-4.65
2022-11-12T20:44:44.552Z,-4.97
2022-11-12T20:48:08.686Z,-5.16
2022-11-12T20:51:30.905Z,-5.19
2022-11-12T20:54:53.680Z,-5.40
2022-11-12T20:58:15.671Z,-5.41
2022-11-12T21:01:38.132Z,-5.34
2022-11-12T21:05:00.293Z,-5.44
2022-11-12T21:08:23.031Z,-5.47
2022-11-12T21:11:45.342Z,-5.40
2022-11-12T21:15:08.107Z,-5.44
2022-11-12T21:18:30.668Z,-5.34
2022-11-12T21:21:52.273Z,-5.34
2022-11-12T21:25:14.458Z,-5.29
2022-11-12T21:28:39.202Z,-5.46
2022-11-12T21:32:01.065Z,-5.50
2022-11-12T21:35:23.495Z,-5.47
2022-11-12T21:38:45.341Z,-5.45
2022-11-12T21:42:06.888Z,-5.70
2022-11-12T21:45:29.195Z,-5.92
2022-11-12T21:48:55.069Z,-6.10
2022-11-12T21:52:16.293Z,-6.17
2022-11-12T21:55:38.789Z,-6.11
2022-11-12T21:59:01.856Z,-6.19
2022-11-12T22:02:23.688Z,-6.15
2022-11-12T22:05:45.974Z,-6.09
2022-11-12T22:09:08.623Z,-6.15
2022-11-12T22:12:30.649Z,-6.14
2022-11-12T22:15:53.566Z,-6.08
2022-11-12T22:19:16.708Z,-6.02
2022-11-12T22:22:38.395Z,-5.98
2022-11-12T22:26:01.177Z,-6.00
2022-11-12T22:29:22.823Z,-5.98
2022-11-12T22:32:44.449Z,-5.98
2022-11-12T22:36:12.206Z,-5.98
2022-11-12T22:39:34.213Z,-5.99
2022-11-12T22:42:55.780Z,-6.02
2022-11-12T22:46:21.186Z,-6.13
2022-11-12T22:49:43.341Z,-6.12
2022-11-12T22:53:05.007Z,-6.12
2022-11-12T22:56:27.814Z,-6.19
2022-11-12T22:59:50.121Z,-6.24
2022-11-12T23:03:11.971Z,-6.36
2022-11-12T23:06:34.637Z,-6.56
2022-11-12T23:09:55.867Z,-6.61
2022-11-12T23:13:18.450Z,-6.61
2022-11-12T23:16:40.998Z,-6.66
2022-11-12T23:20:03.927Z,-6.70
2022-11-12T23:23:25.270Z,-6.89
2022-11-12T23:26:46.856Z,-6.69
2022-11-12T23:30:08.670Z,-6.70
2022-11-12T23:33:31.167Z,-6.73
2022-11-12T23:36:53.488Z,-6.81
2022-11-12T23:40:16.685Z,-6.79
2022-11-12T23:43:37.940Z,-6.74
2022-11-12T23:46:59.754Z,-6.79
2022-11-12T23:50:21.967Z,-6.78
2022-11-12T23:53:43.359Z,-6.77
2022-11-12T23:57:04.715Z,-6.75
